Time;durP1;ratioP1;P1;durP2;ratioP2;P2;SDS_P1;SDS_P2;PMS_P1;PMS_P2;Temp;Humidity;BMP_temperature;BMP_pressure;BME280_temperature;BME280_humidity;BME280_pressure;Samples;Min_cycle;Max_cycle;Signal;HPM_P1;HPM_P2
2022/10/30 00:00:55;;;;;;;8.67;1.90;;;11.50;99.90;10.80;100631;;;;572984;246;24155;-80
2022/10/30 00:03:24;;;;;;;5.23;1.50;;;11.50;99.90;10.80;100628;;;;572987;246;24091;-83
2022/10/30 00:05:52;;;;;;;6.37;2.23;;;11.40;99.90;10.70;100634;;;;572446;246;24110;-81
2022/10/30 00:08:24;;;;;;;5.07;1.60;;;11.40;99.90;10.70;100634;;;;572354;246;24096;-81
2022/10/30 00:10:52;;;;;;;5.80;1.90;;;11.40;99.90;10.60;100625;;;;572281;246;24184;-82
2022/10/30 00:13:16;;;;;;;6.17;1.83;;;11.30;99.90;10.50;100637;;;;582696;241;24103;-81
2022/10/30 00:15:50;;;;;;;5.23;1.60;;;11.20;99.90;10.50;100648;;;;583205;241;24071;-80
2022/10/30 00:18:21;;;;;;;3.83;2.00;;;11.20;99.90;10.40;100643;;;;583399;241;24093;-82
2022/10/30 00:20:46;;;;;;;7.23;1.40;;;11.20;99.90;10.40;100634;;;;582517;241;26520;-84
2022/10/30 00:23:14;;;;;;;5.20;1.57;;;11.10;99.90;10.40;100641;;;;582870;241;24071;-81
2022/10/30 00:25:45;;;;;;;2.20;1.40;;;11.10;99.90;10.30;100651;;;;583089;241;24074;-82
2022/10/30 00:28:10;;;;;;;1.77;1.63;;;11.00;99.90;10.40;100638;;;;582647;241;24142;-81
2022/10/30 00:30:38;;;;;;;1.60;1.23;;;11.00;99.90;10.30;100619;;;;583187;241;24051;-81
2022/10/30 00:33:06;;;;;;;1.63;1.30;;;11.00;99.90;10.30;100619;;;;583161;241;24097;-81
2022/10/30 00:35:34;;;;;;;7.27;1.93;;;11.00;99.90;10.30;100621;;;;583443;241;24062;-81
2022/10/30 00:38:05;;;;;;;3.37;1.33;;;11.00;99.90;10.30;100633;;;;583180;241;24153;-81
2022/10/30 00:40:30;;;;;;;4.23;2.10;;;11.00;99.90;10.30;100637;;;;582536;241;24081;-82
2022/10/30 00:42:58;;;;;;;5.40;1.70;;;11.00;99.90;10.20;100634;;;;583176;239;24077;-83
2022/10/30 00:45:26;;;;;;;3.43;1.43;;;10.90;99.90;10.20;100619;;;;584575;241;24046;-81
2022/10/30 00:47:59;;;;;;;6.00;1.90;;;11.00;99.90;10.20;100617;;;;584235;241;24119;-80
2022/10/30 00:50:27;;;;;;;3.60;1.50;;;10.90;99.90;10.20;100625;;;;583981;241;24092;-81
2022/10/30 00:53:07;;;;;;;5.87;1.70;;;10.90;99.90;10.20;100633;;;;583823;241;24101;-81
2022/10/30 00:55:35;;;;;;;3.87;1.77;;;10.90;99.90;10.20;100631;;;;583470;241;24067;-81
2022/10/30 00:58:03;;;;;;;3.77;1.43;;;10.90;99.90;10.20;100639;;;;583513;241;24092;-81
2022/10/30 01:00:31;;;;;;;4.20;1.60;;;10.90;99.90;10.20;100643;;;;573172;245;24139;-81
2022/10/30 01:02:59;;;;;;;2.23;1.33;;;10.90;99.90;10.20;100647;;;;582714;246;24075;-81
2022/10/30 01:05:27;;;;;;;6.30;2.07;;;10.90;99.90;10.20;100642;;;;578116;243;24130;-80
2022/10/30 01:07:54;;;;;;;2.83;1.50;;;10.90;99.90;10.20;100657;;;;574809;245;24076;-80
2022/10/30 01:10:26;;;;;;;3.20;1.53;;;10.90;99.90;10.20;100649;;;;577072;245;24083;-81
2022/10/30 01:12:51;;;;;;;8.93;1.73;;;10.90;99.90;10.20;100651;;;;583189;243;24143;-81
2022/10/30 01:15:19;;;;;;;4.83;1.80;;;10.90;99.90;10.20;100651;;;;574254;245;24138;-81
2022/10/30 01:18:14;;;;;;;2.30;1.70;;;10.90;99.90;10.20;100647;;;;574457;245;24156;-81
2022/10/30 01:20:54;;;;;;;3.33;1.47;;;10.90;99.90;10.20;100644;;;;576556;245;24142;-80
2022/10/30 01:23:43;;;;;;;7.87;1.80;;;10.90;99.90;10.10;100644;;;;573525;245;24082;-82
2022/10/30 01:26:26;;;;;;;2.00;1.50;;;10.90;99.90;10.10;100647;;;;577558;245;24164;-82
2022/10/30 01:28:59;;;;;;;4.80;2.10;;;10.90;99.90;10.10;100642;;;;583070;245;24084;-81
2022/10/30 01:31:39;;;;;;;7.10;1.80;;;10.90;99.90;10.10;100642;;;;573798;245;24167;-80
2022/10/30 01:34:28;;;;;;;3.50;1.47;;;10.80;99.90;10.10;100641;;;;574156;245;24131;-83
2022/10/30 01:37:07;;;;;;;6.90;1.70;;;10.80;99.90;10.00;100639;;;;583212;245;24096;-83
2022/10/30 01:39:42;;;;;;;5.60;1.63;;;10.80;99.90;10.00;100633;;;;569848;245;24102;-83
2022/10/30 01:42:46;;;;;;;4.23;2.03;;;10.70;99.90;10.00;100630;;;;574081;245;24092;-82
2022/10/30 01:45:20;;;;;;;3.07;1.83;;;10.70;99.90;10.00;100635;;;;583611;245;24083;-82
2022/10/30 01:48:00;;;;;;;5.90;2.13;;;10.70;99.90;9.90;100632;;;;571834;245;24124;-82
2022/10/30 01:50:46;;;;;;;4.57;2.00;;;10.70;99.90;9.90;100630;;;;582900;245;24127;-84
2022/10/30 01:53:19;;;;;;;4.97;1.53;;;10.70;99.90;9.90;100623;;;;583095;243;24134;-82
2022/10/30 01:55:56;;;;;;;1.93;1.70;;;10.60;99.90;9.90;100632;;;;583518;244;24187;-82
2022/10/30 01:58:27;;;;;;;9.27;2.63;;;10.60;99.90;9.90;100624;;;;573918;240;24174;-81
2022/10/30 02:00:55;;;;;;;5.03;2.13;;;10.60;99.90;9.90;100626;;;;582571;241;24090;-82
2022/10/30 02:03:23;;;;;;;8.17;1.63;;;10.60;99.90;9.80;100632;;;;573534;245;24165;-82
2022/10/30 02:05:51;;;;;;;2.20;1.67;;;10.60;99.90;9.80;100632;;;;583489;241;24096;-82
2022/10/30 02:08:19;;;;;;;8.10;2.37;;;10.60;99.90;9.80;100626;;;;583671;241;24141;-81
2022/10/30 02:10:51;;;;;;;6.03;1.70;;;10.50;99.90;9.80;100634;;;;584002;236;24117;-80
2022/10/30 02:13:19;;;;;;;3.23;1.37;;;10.50;99.90;9.70;100624;;;;572728;246;24132;-82
2022/10/30 02:15:47;;;;;;;2.70;2.00;;;10.50;99.90;9.70;100630;;;;575666;246;24080;-81
2022/10/30 02:18:15;;;;;;;6.23;2.33;;;10.40;99.90;9.60;100631;;;;579001;241;35084;-81
2022/10/30 02:20:43;;;;;;;5.00;2.20;;;10.40;99.90;9.60;100625;;;;573303;246;24144;-81
2022/10/30 02:23:17;;;;;;;8.50;2.70;;;10.30;99.90;9.50;100617;;;;575750;246;24076;-82
2022/10/30 02:25:40;;;;;;;2.83;1.90;;;10.20;99.90;9.50;100614;;;;584115;241;26283;-82
2022/10/30 02:28:08;;;;;;;4.00;1.83;;;10.20;99.90;9.40;100627;;;;573482;246;24134;-81
2022/10/30 02:30:36;;;;;;;2.60;1.70;;;10.20;99.90;9.40;100631;;;;575900;246;24145;-81
2022/10/30 02:33:04;;;;;;;2.73;1.77;;;10.10;99.90;9.30;100623;;;;583983;241;24053;-80
2022/10/30 02:35:34;;;;;;;10.23;2.60;;;10.00;99.90;9.30;100624;;;;573257;246;25126;-80
2022/10/30 02:37:59;;;;;;;2.83;1.87;;;10.00;99.90;9.20;100629;;;;573238;246;24148;-81
2022/10/30 02:40:27;;;;;;;4.87;2.37;;;10.00;99.90;9.20;100617;;;;573354;246;24134;-82
2022/10/30 02:42:55;;;;;;;7.53;1.83;;;9.90;99.90;9.10;100615;;;;583835;241;24114;-81
2022/10/30 02:45:23;;;;;;;8.63;2.20;;;9.90;99.90;9.10;100604;;;;583758;241;24046;-82
2022/10/30 02:47:51;;;;;;;7.30;1.77;;;9.80;99.90;9.10;100613;;;;583709;241;24071;-82
2022/10/30 02:50:19;;;;;;;3.17;1.50;;;9.80;99.90;9.00;100627;;;;572762;246;24164;-82
2022/10/30 02:52:47;;;;;;;8.07;2.07;;;9.80;99.90;9.00;100623;;;;583771;241;24069;-82
2022/10/30 02:55:19;;;;;;;6.80;1.93;;;9.80;99.90;9.00;100613;;;;583755;241;24082;-82
2022/10/30 02:57:47;;;;;;;4.93;1.83;;;9.70;99.90;9.00;100616;;;;581091;246;24154;-82
2022/10/30 03:00:16;;;;;;;2.07;1.70;;;9.70;99.90;8.90;100614;;;;583397;241;24141;-82
2022/10/30 03:02:43;;;;;;;3.17;1.90;;;9.70;99.90;8.90;100616;;;;583547;241;24081;-81
2022/10/30 03:05:11;;;;;;;2.37;1.80;;;9.70;99.90;8.90;100608;;;;583581;241;24069;-81
2022/10/30 03:07:36;;;;;;;5.47;1.93;;;9.70;99.90;8.90;100627;;;;584625;241;24108;-82
2022/10/30 03:10:07;;;;;;;8.43;2.33;;;9.60;99.90;8.90;100625;;;;584841;241;24057;-82
2022/10/30 03:12:32;;;;;;;4.53;2.60;;;9.60;99.90;8.90;100619;;;;586526;236;24111;-82
2022/10/30 03:15:00;;;;;;;5.57;1.63;;;9.60;99.90;8.80;100621;;;;586492;240;24084;-80
2022/10/30 03:17:28;;;;;;;2.53;2.10;;;9.60;99.90;8.80;100616;;;;585969;240;24064;-81
2022/10/30 03:19:55;;;;;;;6.03;2.50;;;9.60;99.90;8.80;100627;;;;586301;240;24061;-80
2022/10/30 03:22:23;;;;;;;9.53;2.20;;;9.60;99.90;8.80;100628;;;;585965;240;24054;-80
2022/10/30 03:24:51;;;;;;;6.40;2.20;;;9.50;99.90;8.70;100622;;;;583540;241;24146;-81
2022/10/30 03:27:19;;;;;;;11.63;2.73;;;9.50;99.90;8.70;100615;;;;583723;241;24188;-83
2022/10/30 03:29:47;;;;;;;3.90;2.20;;;9.50;99.90;8.70;100611;;;;572552;241;24102;-81
2022/10/30 03:32:15;;;;;;;6.10;1.90;;;9.50;99.90;8.60;100618;;;;583612;241;24103;-82
2022/10/30 03:34:43;;;;;;;6.27;2.43;;;9.40;99.90;8.60;100634;;;;583692;241;24069;-80
2022/10/30 03:37:12;;;;;;;9.60;2.30;;;9.40;99.90;8.60;100633;;;;572667;246;24122;-81
2022/10/30 03:39:39;;;;;;;5.33;2.30;;;9.40;99.90;8.60;100628;;;;583505;241;24156;-83
2022/10/30 03:42:07;;;;;;;2.20;1.83;;;9.40;99.90;8.60;100620;;;;583588;241;24172;-82
2022/10/30 03:44:35;;;;;;;9.13;2.67;;;9.40;99.90;8.60;100601;;;;572532;246;24086;-82
2022/10/30 03:47:03;;;;;;;2.23;1.90;;;9.40;99.90;8.60;100599;;;;583223;241;24085;-80
2022/10/30 03:49:31;;;;;;;5.77;2.23;;;9.30;99.90;8.50;100616;;;;580579;246;24095;-81
2022/10/30 03:51:59;;;;;;;4.10;1.63;;;9.30;99.90;8.50;100632;;;;562499;250;24165;-82
2022/10/30 03:54:27;;;;;;;7.13;2.97;;;9.30;99.90;8.50;100634;;;;574235;246;35395;-81
2022/10/30 03:56:55;;;;;;;7.33;2.63;;;9.30;99.90;8.50;100652;;;;562759;250;24144;-80
2022/10/30 03:59:23;;;;;;;5.47;2.40;;;9.30;99.90;8.40;100653;;;;579429;246;24141;-82
2022/10/30 04:01:51;;;;;;;4.57;2.40;;;9.20;99.90;8.40;100637;;;;563244;250;24227;-82
2022/10/30 04:04:19;;;;;;;5.13;2.40;;;9.20;99.90;8.40;100633;;;;572614;246;24119;-82
2022/10/30 04:06:47;;;;;;;3.27;2.60;;;9.20;99.90;8.40;100631;;;;563122;250;24169;-82
2022/10/30 04:09:15;;;;;;;11.37;2.47;;;9.20;99.90;8.30;100628;;;;572764;246;24079;-82
2022/10/30 04:11:43;;;;;;;6.67;2.00;;;9.10;99.90;8.30;100637;;;;562865;250;24165;-81
2022/10/30 04:14:11;;;;;;;8.03;2.83;;;9.10;99.90;8.30;100638;;;;573805;246;24161;-81
2022/10/30 04:16:39;;;;;;;3.70;2.00;;;9.00;99.90;8.20;100639;;;;563224;250;24143;-82
2022/10/30 04:19:07;;;;;;;6.47;3.50;;;9.00;99.90;8.20;100621;;;;581358;245;24076;-80
2022/10/30 04:21:35;;;;;;;5.63;2.30;;;9.00;99.90;8.20;100634;;;;564067;250;24185;-81
2022/10/30 04:24:03;;;;;;;3.80;2.57;;;9.00;99.90;8.20;100632;;;;580325;246;24105;-82
2022/10/30 04:26:31;;;;;;;5.00;2.50;;;9.00;99.90;8.20;100642;;;;564727;246;24191;-81
2022/10/30 04:28:58;;;;;;;7.60;2.60;;;9.00;99.90;8.20;100630;;;;584862;245;24152;-81
2022/10/30 04:31:26;;;;;;;3.27;2.87;;;9.00;99.90;8.20;100628;;;;575764;245;24139;-81
2022/10/30 04:33:54;;;;;;;3.33;2.17;;;9.00;99.90;8.20;100635;;;;584754;245;24097;-81
2022/10/30 04:36:28;;;;;;;2.93;2.60;;;8.90;99.90;8.20;100631;;;;584072;245;24128;-81
2022/10/30 04:38:50;;;;;;;3.07;1.90;;;9.00;99.90;8.20;100633;;;;575606;245;24123;-81
2022/10/30 04:41:18;;;;;;;3.53;2.23;;;9.00;99.90;8.20;100635;;;;575094;245;24134;-83
2022/10/30 04:43:46;;;;;;;3.37;2.40;;;9.00;99.90;8.20;100639;;;;575692;245;24123;-82
2022/10/30 04:46:14;;;;;;;9.17;2.60;;;9.00;99.90;8.20;100637;;;;595625;239;24094;-80
2022/10/30 04:48:42;;;;;;;4.13;2.47;;;9.00;99.90;8.20;100639;;;;575805;245;24134;-81
2022/10/30 04:51:10;;;;;;;5.80;2.37;;;9.00;99.90;8.20;100635;;;;586005;241;24164;-82
2022/10/30 04:53:38;;;;;;;7.67;2.70;;;9.00;99.90;8.20;100635;;;;575059;245;24093;-80
2022/10/30 04:56:09;;;;;;;6.37;2.63;;;9.00;99.90;8.20;100639;;;;573534;242;24118;-80
2022/10/30 04:58:34;;;;;;;7.20;2.60;;;9.00;99.90;8.20;100646;;;;591160;237;25028;-80
2022/10/30 05:01:02;;;;;;;9.60;3.10;;;9.00;99.90;8.20;100646;;;;573859;246;24136;-79
2022/10/30 05:03:33;;;;;;;4.50;3.37;;;9.00;99.90;8.20;100653;;;;575126;242;24054;-80
2022/10/30 05:06:00;;;;;;;5.07;3.10;;;9.00;99.90;8.20;100647;;;;578256;243;24138;-81
2022/10/30 05:08:28;;;;;;;4.33;2.73;;;9.00;99.90;8.10;100654;;;;590701;237;24038;-81
2022/10/30 05:10:57;;;;;;;6.40;3.13;;;8.90;99.90;8.10;100646;;;;588226;238;24029;-81
2022/10/30 05:13:25;;;;;;;4.20;2.53;;;8.90;99.90;8.20;100647;;;;600446;237;24109;-79
2022/10/30 05:15:55;;;;;;;5.13;2.90;;;9.00;99.90;8.20;100641;;;;587674;238;24096;-81
2022/10/30 05:18:21;;;;;;;9.80;4.43;;;9.00;99.90;8.20;100647;;;;583334;239;45955;-80
2022/10/30 05:20:48;;;;;;;10.17;3.93;;;9.00;99.90;8.20;100640;;;;587765;238;24088;-78
2022/10/30 05:23:16;;;;;;;6.47;3.33;;;9.10;99.90;8.20;100637;;;;589846;241;24046;-81
2022/10/30 05:25:44;;;;;;;4.93;3.60;;;9.00;99.90;8.20;100641;;;;588854;241;24103;-81
2022/10/30 05:28:12;;;;;;;8.07;2.60;;;9.00;99.90;8.20;100628;;;;588287;238;24065;-85
2022/10/30 05:30:40;;;;;;;3.40;2.43;;;9.00;99.90;8.20;100624;;;;578243;243;24116;-83
2022/10/30 05:33:08;;;;;;;2.93;2.50;;;9.10;99.90;8.30;100634;;;;588827;242;24013;-81
2022/10/30 05:35:37;;;;;;;3.97;2.97;;;9.10;99.90;8.30;100634;;;;590151;241;24081;-81
2022/10/30 05:38:08;;;;;;;7.60;2.93;;;9.10;99.90;8.30;100631;;;;584919;241;24088;-80
2022/10/30 05:40:33;;;;;;;4.40;2.60;;;9.10;99.90;8.30;100627;;;;583334;241;25294;-83
2022/10/30 05:43:04;;;;;;;5.83;2.80;;;9.10;99.90;8.40;100629;;;;581399;242;24046;-80
2022/10/30 05:45:29;;;;;;;9.23;2.57;;;9.20;99.90;8.40;100624;;;;586123;240;24164;-79
2022/10/30 05:48:00;;;;;;;4.13;2.43;;;9.20;99.90;8.50;100627;;;;575031;245;24128;-81
2022/10/30 05:50:28;;;;;;;2.67;2.10;;;9.20;99.90;8.50;100633;;;;585192;241;24054;-81
2022/10/30 05:52:56;;;;;;;4.53;2.17;;;9.30;99.90;8.50;100633;;;;586936;239;24052;-82
2022/10/30 05:55:23;;;;;;;2.83;2.47;;;9.30;99.90;8.60;100635;;;;582440;239;25279;-84
2022/10/30 05:58:01;;;;;;;6.63;2.23;;;9.40;99.90;8.60;100633;;;;584110;241;24052;-84
2022/10/30 06:00:25;;;;;;;3.93;2.93;;;9.40;99.90;8.70;100628;;;;586308;239;24050;-85
2022/10/30 06:02:53;;;;;;;6.73;2.67;;;9.40;99.90;8.70;100629;;;;583542;241;24066;-86
2022/10/30 06:05:21;;;;;;;4.27;2.47;;;9.50;99.90;8.70;100624;;;;583799;241;24163;-85
2022/10/30 06:07:49;;;;;;;2.50;2.30;;;9.50;99.90;8.80;100631;;;;591201;241;24131;-86
2022/10/30 06:10:17;;;;;;;4.60;2.80;;;9.70;99.90;8.90;100632;;;;590008;241;24083;-80
2022/10/30 06:12:45;;;;;;;5.10;2.20;;;9.60;99.90;9.00;100640;;;;586142;239;24084;-80
2022/10/30 06:15:13;;;;;;;4.03;2.57;;;9.70;99.90;9.10;100642;;;;584358;241;24085;-82
2022/10/30 06:17:41;;;;;;;6.20;2.40;;;9.80;99.90;9.20;100645;;;;584539;240;24074;-80
2022/10/30 06:20:09;;;;;;;3.23;2.50;;;9.90;99.90;9.30;100644;;;;592078;240;24118;-83
2022/10/30 06:22:39;;;;;;;12.07;3.45;;;10.10;99.90;9.30;100653;;;;580728;241;35315;-80
2022/10/30 06:25:07;;;;;;;7.27;3.50;;;10.20;99.90;9.40;100660;;;;585817;241;24056;-85
2022/10/30 06:27:35;;;;;;;5.87;3.83;;;10.20;99.90;9.50;100664;;;;574229;245;24082;-81
2022/10/30 06:30:03;;;;;;;8.00;4.23;;;10.30;99.90;9.60;100660;;;;574343;245;24088;-84
2022/10/30 06:32:30;;;;;;;9.30;4.53;;;10.40;99.90;9.70;100654;;;;579329;245;24141;-85
2022/10/30 06:34:58;;;;;;;6.07;3.43;;;10.50;99.90;9.80;100644;;;;583348;245;24176;-85
2022/10/30 06:37:27;;;;;;;4.50;3.47;;;10.60;99.90;9.90;100652;;;;580983;245;24084;-85
2022/10/30 06:39:54;;;;;;;6.93;2.87;;;10.70;99.90;10.00;100657;;;;580810;245;24133;-83
2022/10/30 06:42:22;;;;;;;6.07;3.00;;;10.80;99.90;10.10;100656;;;;575391;245;24116;-84
2022/10/30 06:44:50;;;;;;;3.53;2.83;;;10.90;99.90;10.20;100654;;;;575192;244;24146;-84
2022/10/30 06:47:18;;;;;;;5.63;2.77;;;11.00;99.90;10.30;100656;;;;575029;245;24119;-85
2022/10/30 06:49:46;;;;;;;8.63;3.50;;;11.10;99.90;10.40;100661;;;;574899;245;24115;-80
2022/10/30 06:52:14;;;;;;;6.40;2.90;;;11.10;99.90;10.40;100666;;;;583783;244;24105;-80
2022/10/30 06:54:42;;;;;;;6.77;2.40;;;11.20;99.90;10.50;100665;;;;574705;245;24074;-80
2022/10/30 06:57:10;;;;;;;4.70;2.97;;;11.30;99.90;10.60;100672;;;;574651;245;24126;-81
2022/10/30 06:59:38;;;;;;;5.97;3.10;;;11.40;99.90;10.70;100674;;;;574913;245;24076;-82
2022/10/30 07:02:06;;;;;;;8.20;3.10;;;11.50;99.90;10.80;100679;;;;577805;241;24090;-77
2022/10/30 07:04:33;;;;;;;4.63;2.90;;;11.60;99.90;10.90;100682;;;;583546;245;24092;-78
2022/10/30 07:07:01;;;;;;;4.13;2.87;;;11.70;99.90;11.00;100682;;;;575837;241;24076;-80
2022/10/30 07:09:29;;;;;;;4.20;3.20;;;11.80;99.90;11.20;100679;;;;586605;239;24094;-79
2022/10/30 07:11:57;;;;;;;7.50;3.27;;;11.90;99.90;11.20;100686;;;;590046;239;24087;-80
2022/10/30 07:14:25;;;;;;;6.10;2.87;;;12.00;99.90;11.30;100687;;;;585212;238;24075;-79
2022/10/30 07:16:56;;;;;;;5.87;3.00;;;12.10;99.90;11.40;100701;;;;581369;243;24144;-81
2022/10/30 07:19:24;;;;;;;10.10;3.40;;;12.20;99.90;11.50;100694;;;;577293;244;24009;-79
2022/10/30 07:21:52;;;;;;;3.73;3.13;;;12.30;99.90;11.60;100692;;;;578598;244;24047;-78
2022/10/30 07:24:20;;;;;;;7.30;3.10;;;12.40;99.90;11.70;100687;;;;584414;242;24079;-78
2022/10/30 07:26:48;;;;;;;6.23;3.33;;;12.50;99.90;11.80;100697;;;;582064;242;24073;-81
2022/10/30 07:29:16;;;;;;;5.57;3.37;;;12.60;99.90;11.90;100693;;;;583334;240;24077;-81
2022/10/30 07:31:44;;;;;;;3.83;3.00;;;12.70;99.90;12.00;100705;;;;582172;242;24038;-80
2022/10/30 07:34:12;;;;;;;6.50;3.40;;;12.90;99.90;12.20;100699;;;;587524;239;24075;-80
2022/10/30 07:36:45;;;;;;;7.47;3.77;;;13.00;99.90;12.30;100702;;;;578482;244;24101;-80
2022/10/30 07:39:09;;;;;;;7.80;4.03;;;13.00;99.90;12.50;100704;;;;585129;238;24111;-80
2022/10/30 07:41:37;;;;;;;9.00;3.63;;;13.10;99.90;12.70;100706;;;;590787;239;24024;-79
2022/10/30 07:44:05;;;;;;;7.60;4.60;;;13.40;99.90;13.00;100709;;;;586210;241;24077;-81
2022/10/30 07:46:33;;;;;;;5.83;4.17;;;13.60;99.90;13.60;100708;;;;584068;244;24033;-79
2022/10/30 07:49:04;;;;;;;7.13;3.93;;;14.10;99.90;14.10;100716;;;;580460;242;24135;-80
2022/10/30 07:51:28;;;;;;;8.03;3.73;;;14.60;99.90;14.20;100708;;;;592169;242;24080;-79
2022/10/30 07:53:56;;;;;;;4.80;3.50;;;14.90;99.90;14.30;100715;;;;582557;241;24074;-79
2022/10/30 07:56:25;;;;;;;6.53;3.87;;;15.00;99.90;14.30;100709;;;;583446;241;24046;-79
2022/10/30 07:58:54;;;;;;;10.63;4.00;;;15.10;99.90;14.40;100699;;;;583666;241;24097;-81
2022/10/30 08:01:22;;;;;;;10.40;4.00;;;15.00;99.90;14.50;100700;;;;583026;242;24059;-79
2022/10/30 08:03:49;;;;;;;7.77;4.33;;;15.20;99.90;14.60;100700;;;;589636;242;24145;-79
2022/10/30 08:06:21;;;;;;;5.53;3.80;;;15.30;99.90;14.80;100702;;;;580672;242;24064;-79
2022/10/30 08:08:45;;;;;;;7.67;3.60;;;15.40;99.90;15.00;100696;;;;580510;240;24152;-81
2022/10/30 08:11:13;;;;;;;4.20;3.80;;;15.60;99.90;15.30;100692;;;;585260;241;24099;-78
2022/10/30 08:13:41;;;;;;;7.73;3.67;;;15.90;99.90;15.50;100703;;;;584759;241;24079;-80
2022/10/30 08:16:12;;;;;;;3.83;3.33;;;16.10;99.90;15.70;100709;;;;592202;238;24060;-80
2022/10/30 08:18:41;;;;;;;6.30;3.73;;;16.30;99.90;15.80;100703;;;;593361;238;24046;-80
2022/10/30 08:21:07;;;;;;;6.03;3.23;;;16.50;99.90;15.90;100705;;;;593398;238;24107;-81
2022/10/30 08:23:35;;;;;;;7.17;3.20;;;16.60;99.90;15.90;100711;;;;602868;238;24109;-81
2022/10/30 08:26:04;;;;;;;5.60;3.07;;;16.60;99.90;15.90;100705;;;;593450;238;24047;-81
2022/10/30 08:28:31;;;;;;;7.00;4.00;;;16.60;99.90;15.90;100709;;;;563453;250;24065;-81
2022/10/30 08:30:59;;;;;;;7.17;3.93;;;16.60;99.90;15.90;100709;;;;581167;245;24064;-81
2022/10/30 08:33:27;;;;;;;7.20;3.47;;;16.60;99.90;15.90;100700;;;;579218;243;24170;-81
2022/10/30 08:35:58;;;;;;;7.83;3.10;;;16.60;99.90;15.80;100693;;;;572914;245;24088;-82
2022/10/30 08:38:27;;;;;;;4.30;2.77;;;16.50;99.90;15.70;100696;;;;591785;238;24205;-82
2022/10/30 08:40:54;;;;;;;4.70;3.17;;;16.50;99.90;15.80;100692;;;;568700;248;24069;-82
2022/10/30 08:43:24;;;;;;;3.63;2.80;;;16.40;99.90;15.80;100685;;;;579862;243;24047;-80
2022/10/30 08:45:50;;;;;;;5.70;2.80;;;16.50;99.90;16.00;100694;;;;580217;243;24109;-83
2022/10/30 08:48:18;;;;;;;3.97;2.50;;;16.60;99.90;16.00;100697;;;;580236;243;24074;-83
2022/10/30 08:50:46;;;;;;;5.40;2.97;;;16.60;99.90;16.10;100693;;;;579754;243;24066;-78
2022/10/30 08:53:14;;;;;;;3.27;2.67;;;16.70;99.90;16.00;100692;;;;579779;243;24299;-81
2022/10/30 08:55:45;;;;;;;4.03;2.70;;;16.70;99.90;16.00;100695;;;;579560;243;24135;-79
2022/10/30 08:58:10;;;;;;;4.43;2.73;;;16.60;99.90;16.00;100700;;;;579570;243;24059;-79
2022/10/30 09:00:38;;;;;;;5.80;2.80;;;16.60;99.90;16.00;100703;;;;583188;237;24107;-78
2022/10/30 09:03:06;;;;;;;3.70;2.70;;;16.60;99.90;15.90;100711;;;;584205;241;24054;-79
2022/10/30 09:05:35;;;;;;;3.90;2.47;;;16.50;99.90;15.80;100716;;;;594004;237;24097;-81
2022/10/30 09:08:03;;;;;;;6.47;2.97;;;16.50;99.90;15.70;100718;;;;584490;238;24065;-78
2022/10/30 09:10:31;;;;;;;4.80;3.30;;;16.40;99.90;15.70;100713;;;;584493;241;24135;-83
2022/10/30 09:13:02;;;;;;;3.90;2.40;;;16.40;99.90;15.70;100709;;;;583209;241;24160;-84
2022/10/30 09:15:30;;;;;;;4.13;2.90;;;16.30;99.90;15.60;100716;;;;587151;237;24091;-86
2022/10/30 09:18:01;;;;;;;5.47;2.50;;;16.30;99.90;15.60;100718;;;;591721;238;24060;-83
2022/10/30 09:20:29;;;;;;;6.27;2.37;;;16.30;99.90;15.70;100713;;;;591603;238;24016;-79
2022/10/30 09:22:57;;;;;;;2.47;1.90;;;16.20;99.90;15.70;100713;;;;590739;238;24065;-81
2022/10/30 09:25:25;;;;;;;5.43;2.50;;;16.30;99.90;15.80;100720;;;;591255;237;24152;-80
2022/10/30 09:27:53;;;;;;;3.17;2.27;;;16.40;99.90;16.00;100729;;;;593963;237;24065;-79
2022/10/30 09:30:21;;;;;;;6.27;2.23;;;16.50;99.90;16.10;100726;;;;592960;238;24051;-78
2022/10/30 09:33:01;;;;;;;8.87;3.40;;;16.60;99.90;16.20;100735;;;;582347;245;24120;-79
2022/10/30 09:35:27;;;;;;;5.97;2.80;;;16.90;99.90;16.30;100741;;;;592414;240;24042;-86
2022/10/30 09:37:55;;;;;;;6.37;2.93;;;16.90;99.90;16.40;100748;;;;590275;238;24103;-82
2022/10/30 09:40:43;;;;;;;3.07;2.77;;;16.90;99.90;16.40;100753;;;;591365;239;24035;-81
2022/10/30 09:43:39;;;;;;;5.60;3.03;;;17.10;99.90;16.50;100754;;;;583730;238;24003;-80
2022/10/30 09:46:34;;;;;;;6.27;2.93;;;17.10;99.90;16.50;100754;;;;590655;238;24058;-79
2022/10/30 09:49:14;;;;;;;8.13;3.50;;;17.10;99.90;16.40;100745;;;;580735;238;24017;-80
2022/10/30 09:52:06;;;;;;;2.63;2.43;;;17.00;99.90;16.30;100738;;;;578577;238;24009;-81
2022/10/30 09:54:46;;;;;;;4.33;2.70;;;16.90;99.90;16.20;100730;;;;573136;246;24088;-81
2022/10/30 09:57:26;;;;;;;2.17;1.93;;;16.80;99.90;16.10;100724;;;;572283;243;24054;-82
2022/10/30 10:00:03;;;;;;;5.80;3.20;;;16.70;99.90;16.10;100723;;;;574382;245;24113;-81
2022/10/30 10:02:36;;;;;;;5.17;3.00;;;16.60;99.90;16.10;100728;;;;582158;243;24147;-82
2022/10/30 10:05:07;;;;;;;4.23;3.10;;;16.60;99.90;16.00;100735;;;;579714;243;24089;-81
2022/10/30 10:07:46;;;;;;;5.80;2.73;;;16.60;99.90;16.00;100741;;;;579406;243;24140;-81
2022/10/30 10:10:38;;;;;;;7.60;3.87;;;16.60;99.90;15.90;100739;;;;579980;243;24051;-78
2022/10/30 10:13:06;;;;;;;7.73;3.70;;;16.50;99.90;15.90;100740;;;;578478;245;24097;-81
2022/10/30 10:15:43;;;;;;;4.07;3.67;;;16.50;99.90;15.80;100738;;;;591755;241;24149;-82
2022/10/30 10:18:21;;;;;;;2.97;2.57;;;16.40;99.90;15.70;100737;;;;578746;244;24069;-80
2022/10/30 10:20:46;;;;;;;4.57;2.80;;;16.30;99.90;15.70;100735;;;;596130;237;24049;-83
2022/10/30 10:23:17;;;;;;;4.90;2.90;;;16.30;99.90;15.70;100749;;;;593620;237;24058;-82
2022/10/30 10:25:50;;;;;;;3.23;2.57;;;16.20;99.90;15.60;100744;;;;593466;237;24072;-79
2022/10/30 10:28:59;;;;;;;5.27;3.07;;;16.20;99.90;15.50;100734;;;;587474;241;24162;-81
2022/10/30 10:31:35;;;;;;;4.93;2.70;;;16.10;99.90;15.50;100730;;;;569409;248;24135;-80
2022/10/30 10:34:24;;;;;;;3.13;2.50;;;16.10;99.90;15.50;100735;;;;578352;242;24070;-83
2022/10/30 10:37:16;;;;;;;5.70;3.10;;;16.10;99.90;15.50;100733;;;;582685;242;24045;-81
2022/10/30 10:39:56;;;;;;;5.97;2.77;;;16.10;99.90;15.50;100741;;;;582643;242;24104;-80
2022/10/30 10:42:39;;;;;;;6.62;3.67;;;16.10;99.90;15.60;100732;;;;577118;242;35093;-83
2022/10/30 10:45:30;;;;;;;7.50;3.30;;;16.20;99.90;15.60;100744;;;;583865;246;24161;-79
2022/10/30 10:48:14;;;;;;;5.47;3.20;;;16.30;99.90;15.70;100736;;;;586981;238;24190;-81
2022/10/30 10:51:09;;;;;;;5.50;3.07;;;16.30;99.90;15.60;100740;;;;582487;242;24206;-79
2022/10/30 10:53:45;;;;;;;4.90;3.00;;;16.20;99.90;15.50;100745;;;;582683;242;24113;-79
2022/10/30 10:56:13;;;;;;;4.33;3.03;;;16.10;99.90;15.40;100738;;;;582622;242;24067;-79
2022/10/30 10:58:56;;;;;;;5.53;2.97;;;16.00;99.90;15.30;100735;;;;582638;242;24114;-78
2022/10/30 11:01:36;;;;;;;4.57;3.03;;;15.90;99.90;15.20;100739;;;;582820;242;24097;-78
2022/10/30 11:04:41;;;;;;;5.90;2.70;;;15.80;99.90;15.20;100737;;;;581052;242;24061;-79
2022/10/30 11:07:23;;;;;;;3.27;2.83;;;15.80;99.90;15.10;100740;;;;579796;245;24140;-78
2022/10/30 11:09:51;;;;;;;4.93;2.80;;;15.70;99.90;15.20;100739;;;;576071;244;24069;-80
2022/10/30 11:12:25;;;;;;;6.05;3.60;;;15.80;99.90;15.30;100742;;;;577347;242;56610;-81
2022/10/30 11:14:56;;;;;;;5.83;3.60;;;15.90;99.90;15.40;100746;;;;582197;242;24069;-80
2022/10/30 11:17:25;;;;;;;5.63;2.97;;;16.00;99.90;15.40;100743;;;;592083;241;24107;-80
2022/10/30 11:19:59;;;;;;;6.37;3.13;;;16.00;99.90;15.30;100744;;;;589800;243;24083;-82
2022/10/30 11:22:33;;;;;;;4.53;2.57;;;16.00;99.90;15.20;100739;;;;592596;238;24070;-79
2022/10/30 11:25:22;;;;;;;5.20;2.73;;;15.90;99.90;15.10;100743;;;;584543;241;24132;-79
2022/10/30 11:27:50;;;;;;;6.20;2.70;;;15.80;99.90;15.10;100738;;;;585006;240;24121;-80
2022/10/30 11:30:20;;;;;;;5.33;2.63;;;15.70;99.90;15.00;100742;;;;585597;240;24061;-79